Orion Explorer — LNDT — position and weather

sailwx.info

Track history (hours):
 
Tides and Currents Weather Stations Pressure Air Temp Water Temp Dewpoint Dewpoint Depression Visibility Wind Speed Wind Dir Waves Ship Positions

Orion Explorer

Last reported at 2014-Jul-19 07:30 UTC. Time now 2014-Jul-22 09:22 UTC.
Position N 70°34' E 023°08'.

Length 59 m; draft 4.5 m.

Type: Cargo ship. MMSI: 259496000.

Date/timePositionNaut miles runAvg speedWind from/ knotsBaromVisibWave heightAir tempDewpointWater temp
2014-Jul-19 07:30N 70°34' E 023°08'10 9.4
2014-Jul-19 06:28N 70°37' E 023°35'2 0.9
2014-Jul-19 04:32N 70°38' E 023°31'8 1.5
2014-Jul-18 23:20N 70°33' E 023°13'  
2014-Jul-14 12:32N 69°37' E 018°54'3 2.8
2014-Jul-14 11:33N 69°39' E 018°58'0 0.0
2014-Jul-14 10:32N 69°39' E 018°58'0 0.0
2014-Jul-14 09:33N 69°39' E 018°58'0 0.0
2014-Jul-14 08:33N 69°39' E 018°58'0 0.0
2014-Jul-14 07:33N 69°39' E 018°58'0 0.0
2014-Jul-14 06:32N 69°39' E 018°58'0 0.0
2014-Jul-14 05:32N 69°39' E 018°58'0 0.0
2014-Jul-14 04:33N 69°39' E 018°58'0 0.0
2014-Jul-14 03:34N 69°39' E 018°58'0 0.0
2014-Jul-14 02:33N 69°39' E 018°58'0 0.0
2014-Jul-14 01:33N 69°39' E 018°58'0 0.0
2014-Jul-14 00:33N 69°39' E 018°58'0 0.0
2014-Jul-13 23:33N 69°39' E 018°58'0 0.0
2014-Jul-13 22:33N 69°39' E 018°58'0 0.0
2014-Jul-13 21:33N 69°39' E 018°58'0 0.0
2014-Jul-13 20:32N 69°39' E 018°58'0 0.0
2014-Jul-13 19:32N 69°39' E 018°58'0 0.0
2014-Jul-13 18:33N 69°39' E 018°58'0 0.0
2014-Jul-13 17:33N 69°39' E 018°58'0 0.0
2014-Jul-13 16:33N 69°39' E 018°58'0 0.0
2014-Jul-13 15:33N 69°39' E 018°58'0 0.0
2014-Jul-13 14:33N 69°39' E 018°58'0 0.0
2014-Jul-13 13:33N 69°39' E 018°58'0 0.0
2014-Jul-13 12:33N 69°39' E 018°58'0 0.0
2014-Jul-13 11:33N 69°39' E 018°58'0 0.0
2014-Jul-13 10:33N 69°39' E 018°58'0 0.0
2014-Jul-13 09:33N 69°39' E 018°58'0 0.0
2014-Jul-13 08:33N 69°39' E 018°58'0 0.0
2014-Jul-13 07:33N 69°39' E 018°58'0 0.0
2014-Jul-13 06:33N 69°39' E 018°58'0 0.0
2014-Jul-13 05:33N 69°39' E 018°58'0 0.0
2014-Jul-13 04:33N 69°39' E 018°58'0 0.0
2014-Jul-13 03:33N 69°39' E 018°58'0 0.0
2014-Jul-13 02:33N 69°39' E 018°58'0 0.0
2014-Jul-13 01:33N 69°39' E 018°58'0 0.0
2014-Jul-13 00:33N 69°39' E 018°58'0 0.0
2014-Jul-12 23:33N 69°39' E 018°58'0 0.0
2014-Jul-12 22:33N 69°39' E 018°58'0 0.0
2014-Jul-12 21:33N 69°39' E 018°58'0 0.0
2014-Jul-12 20:33N 69°39' E 018°58'0 0.0
2014-Jul-12 19:33N 69°39' E 018°58'0 0.0
2014-Jul-12 18:33N 69°39' E 018°58'4 3.7
2014-Jul-12 17:33N 69°42' E 019°04'106 4.2
2014-Jul-11 16:29N 70°35' E 023°36'7 6.8
2014-Jul-11 15:30N 70°35' E 023°15'101 6.3
2014-Jul-10 23:32N 69°42' E 019°03'  
Track history (hours):
 
Tides and Currents Weather Stations Pressure Air Temp Water Temp Dewpoint Dewpoint Depression Visibility Wind Speed Wind Dir Waves Ship Positions

Orion Explorer

Last reported at 2014-Jul-19 07:30 UTC. Time now 2014-Jul-22 09:22 UTC.
Position N 70°34' E 023°08'.

Length 59 m; draft 4.5 m.

Type: Cargo ship. MMSI: 259496000.

Date/timePositionNaut miles runAvg speedWind from/ knotsBaromVisibWave heightAir tempDewpointWater temp
2014-Jul-19 07:30N 70°34' E 023°08'10 9.4
2014-Jul-19 06:28N 70°37' E 023°35'2 0.9
2014-Jul-19 04:32N 70°38' E 023°31'8 1.5
2014-Jul-18 23:20N 70°33' E 023°13'  
2014-Jul-14 12:32N 69°37' E 018°54'3 2.8
2014-Jul-14 11:33N 69°39' E 018°58'0 0.0
2014-Jul-14 10:32N 69°39' E 018°58'0 0.0
2014-Jul-14 09:33N 69°39' E 018°58'0 0.0
2014-Jul-14 08:33N 69°39' E 018°58'0 0.0
2014-Jul-14 07:33N 69°39' E 018°58'0 0.0
2014-Jul-14 06:32N 69°39' E 018°58'0 0.0
2014-Jul-14 05:32N 69°39' E 018°58'0 0.0
2014-Jul-14 04:33N 69°39' E 018°58'0 0.0
2014-Jul-14 03:34N 69°39' E 018°58'0 0.0
2014-Jul-14 02:33N 69°39' E 018°58'0 0.0
2014-Jul-14 01:33N 69°39' E 018°58'0 0.0
2014-Jul-14 00:33N 69°39' E 018°58'0 0.0
2014-Jul-13 23:33N 69°39' E 018°58'0 0.0
2014-Jul-13 22:33N 69°39' E 018°58'0 0.0
2014-Jul-13 21:33N 69°39' E 018°58'0 0.0
2014-Jul-13 20:32N 69°39' E 018°58'0 0.0
2014-Jul-13 19:32N 69°39' E 018°58'0 0.0
2014-Jul-13 18:33N 69°39' E 018°58'0 0.0
2014-Jul-13 17:33N 69°39' E 018°58'0 0.0
2014-Jul-13 16:33N 69°39' E 018°58'0 0.0
2014-Jul-13 15:33N 69°39' E 018°58'0 0.0
2014-Jul-13 14:33N 69°39' E 018°58'0 0.0
2014-Jul-13 13:33N 69°39' E 018°58'0 0.0
2014-Jul-13 12:33N 69°39' E 018°58'0 0.0
2014-Jul-13 11:33N 69°39' E 018°58'0 0.0
2014-Jul-13 10:33N 69°39' E 018°58'0 0.0
2014-Jul-13 09:33N 69°39' E 018°58'0 0.0
2014-Jul-13 08:33N 69°39' E 018°58'0 0.0
2014-Jul-13 07:33N 69°39' E 018°58'0 0.0
2014-Jul-13 06:33N 69°39' E 018°58'0 0.0
2014-Jul-13 05:33N 69°39' E 018°58'0 0.0
2014-Jul-13 04:33N 69°39' E 018°58'0 0.0
2014-Jul-13 03:33N 69°39' E 018°58'0 0.0
2014-Jul-13 02:33N 69°39' E 018°58'0 0.0
2014-Jul-13 01:33N 69°39' E 018°58'0 0.0
2014-Jul-13 00:33N 69°39' E 018°58'0 0.0
2014-Jul-12 23:33N 69°39' E 018°58'0 0.0
2014-Jul-12 22:33N 69°39' E 018°58'0 0.0
2014-Jul-12 21:33N 69°39' E 018°58'0 0.0
2014-Jul-12 20:33N 69°39' E 018°58'0 0.0
2014-Jul-12 19:33N 69°39' E 018°58'0 0.0
2014-Jul-12 18:33N 69°39' E 018°58'4 3.7
2014-Jul-12 17:33N 69°42' E 019°04'106 4.2
2014-Jul-11 16:29N 70°35' E 023°36'7 6.8
2014-Jul-11 15:30N 70°35' E 023°15'101 6.3
2014-Jul-10 23:32N 69°42' E 019°03'  

Dump ship's entire track history